Time;durP1;ratioP1;P1;durP2;ratioP2;P2;SDS_P1;SDS_P2;PMS_P1;PMS_P2;Temp;Humidity;BMP_temperature;BMP_pressure;BME280_temperature;BME280_humidity;BME280_pressure;Samples;Min_cycle;Max_cycle;Signal;HPM_P1;HPM_P2
2023/04/03 00:01:13;;;;;;;1.95;1.60;;;11.00;99.90;;;;;;5054087;28;20032;-36
2023/04/03 00:03:39;;;;;;;2.70;1.90;;;11.00;99.90;;;;;;5054986;28;20060;-36
2023/04/03 00:06:08;;;;;;;3.05;1.77;;;11.00;99.90;;;;;;5054582;28;20061;-36
2023/04/03 00:08:35;;;;;;;2.55;1.67;;;11.00;99.90;;;;;;5054757;28;20383;-35
2023/04/03 00:11:01;;;;;;;2.30;1.77;;;11.00;99.90;;;;;;5054698;28;20468;-38
2023/04/03 00:13:27;;;;;;;1.90;1.67;;;11.00;99.90;;;;;;5054220;28;20515;-36
2023/04/03 00:15:53;;;;;;;3.92;2.00;;;11.00;99.90;;;;;;5053538;28;20029;-36
2023/04/03 00:18:19;;;;;;;3.30;1.92;;;11.00;99.90;;;;;;5053261;28;20047;-36
2023/04/03 00:20:45;;;;;;;3.55;1.83;;;11.00;99.90;;;;;;5054070;28;20598;-36
2023/04/03 00:23:10;;;;;;;2.63;1.88;;;11.00;99.90;;;;;;5054569;28;20053;-36
2023/04/03 00:25:36;;;;;;;2.83;1.80;;;10.90;99.90;;;;;;5053215;28;20021;-36
2023/04/03 00:28:03;;;;;;;3.95;1.92;;;10.90;99.90;;;;;;5054218;28;20052;-36
2023/04/03 00:30:29;;;;;;;3.20;1.77;;;10.90;99.90;;;;;;5054501;28;20386;-36
2023/04/03 00:32:54;;;;;;;2.70;1.58;;;11.00;99.90;;;;;;5053829;28;20085;-39
2023/04/03 00:35:21;;;;;;;3.40;2.00;;;10.90;99.90;;;;;;5053291;28;20032;-39
2023/04/03 00:37:48;;;;;;;4.28;1.77;;;10.90;99.90;;;;;;5052459;28;20029;-38
2023/04/03 00:40:15;;;;;;;3.10;1.80;;;10.90;99.90;;;;;;5053565;28;20067;-38
2023/04/03 00:42:43;;;;;;;3.85;1.70;;;10.90;99.90;;;;;;5053237;28;20494;-39
2023/04/03 00:45:18;;;;;;;2.53;1.80;;;10.90;99.90;;;;;;5053061;28;20386;-39
2023/04/03 00:47:44;;;;;;;2.58;1.63;;;10.90;99.90;;;;;;5053114;28;20028;-38
2023/04/03 00:50:10;;;;;;;2.97;1.80;;;10.90;99.90;;;;;;5054131;28;20021;-38
2023/04/03 00:52:37;;;;;;;3.67;1.75;;;10.90;99.90;;;;;;5052979;28;20052;-39
2023/04/03 00:55:07;;;;;;;2.95;1.83;;;10.90;99.90;;;;;;5053089;28;20414;-36
2023/04/03 00:57:33;;;;;;;2.05;1.70;;;10.90;99.90;;;;;;5052613;28;20032;-38
2023/04/03 01:00:08;;;;;;;3.00;1.83;;;10.90;99.90;;;;;;5054645;28;20036;-38
2023/04/03 01:02:34;;;;;;;2.05;1.55;;;10.90;99.90;;;;;;5054183;28;20032;-39
2023/04/03 01:05:00;;;;;;;3.58;1.90;;;10.90;99.90;;;;;;5052933;28;20410;-39
2023/04/03 01:07:34;;;;;;;2.35;1.77;;;10.90;99.90;;;;;;5052775;28;20477;-39
2023/04/03 01:10:04;;;;;;;2.55;1.80;;;10.90;99.90;;;;;;5053855;28;20052;-36
2023/04/03 01:12:34;;;;;;;2.78;1.95;;;10.90;99.90;;;;;;5052584;28;20029;-36
2023/04/03 01:15:12;;;;;;;1.92;1.73;;;10.90;99.90;;;;;;5052945;28;20108;-39
2023/04/03 01:17:51;;;;;;;2.55;1.50;;;10.90;99.90;;;;;;5051983;28;20025;-36
2023/04/03 01:20:28;;;;;;;2.17;1.70;;;10.90;99.90;;;;;;5053206;28;20080;-35
2023/04/03 01:23:09;;;;;;;3.13;1.70;;;10.90;99.90;;;;;;5052407;28;20501;-38
2023/04/03 01:25:42;;;;;;;4.40;2.00;;;10.90;99.90;;;;;;5052320;28;20028;-38
2023/04/03 01:28:10;;;;;;;2.30;1.60;;;10.90;99.90;;;;;;5051636;28;20025;-38
2023/04/03 01:30:46;;;;;;;2.92;1.80;;;10.90;99.90;;;;;;5051944;28;20395;-39
2023/04/03 01:33:11;;;;;;;2.55;1.80;;;10.90;99.90;;;;;;5051840;28;20048;-38
2023/04/03 01:35:37;;;;;;;3.05;1.80;;;10.80;99.90;;;;;;5051708;28;20217;-38
2023/04/03 01:38:03;;;;;;;3.35;1.60;;;10.80;99.90;;;;;;5051355;28;20032;-38
2023/04/03 01:40:28;;;;;;;2.97;1.90;;;10.80;99.90;;;;;;5051677;28;20070;-39
2023/04/03 01:42:54;;;;;;;2.75;1.90;;;10.80;99.90;;;;;;5051575;28;20025;-38
2023/04/03 01:45:20;;;;;;;2.80;1.80;;;10.80;99.90;;;;;;5051405;28;20495;-37
2023/04/03 01:47:45;;;;;;;2.45;1.70;;;10.80;99.90;;;;;;5051080;28;20368;-39
2023/04/03 01:50:11;;;;;;;2.25;1.70;;;10.80;99.90;;;;;;5051543;28;20071;-39
2023/04/03 01:52:37;;;;;;;2.00;1.63;;;10.80;99.90;;;;;;5051453;28;20035;-39
2023/04/03 01:55:02;;;;;;;3.13;1.80;;;10.80;99.90;;;;;;5051338;28;20100;-39
2023/04/03 01:57:28;;;;;;;2.40;1.70;;;10.80;99.90;;;;;;5050925;28;20031;-38
2023/04/03 01:59:54;;;;;;;3.00;1.63;;;10.80;99.90;;;;;;5051858;28;20040;-39
2023/04/03 02:02:20;;;;;;;3.92;1.80;;;10.80;99.90;;;;;;5051225;28;20083;-39
2023/04/03 02:04:46;;;;;;;1.90;1.50;;;10.90;99.90;;;;;;5049904;28;20021;-39
2023/04/03 02:07:12;;;;;;;1.83;1.45;;;11.20;99.90;;;;;;5050837;28;20055;-39
2023/04/03 02:09:37;;;;;;;3.00;1.60;;;11.40;99.90;;;;;;5051423;28;20080;-38
2023/04/03 02:12:03;;;;;;;2.40;1.90;;;11.30;99.90;;;;;;5051212;28;20033;-38
2023/04/03 02:14:29;;;;;;;4.53;1.77;;;11.30;99.90;;;;;;5051176;28;20487;-39
2023/04/03 02:16:55;;;;;;;3.15;1.83;;;11.20;99.90;;;;;;5050704;28;20021;-39
2023/04/03 02:19:20;;;;;;;2.92;1.80;;;11.20;99.90;;;;;;5051185;28;20527;-38
2023/04/03 02:21:46;;;;;;;2.58;1.73;;;11.10;99.90;;;;;;5049826;28;20016;-41
2023/04/03 02:24:11;;;;;;;2.67;1.80;;;11.10;99.90;;;;;;5051101;28;20040;-39
2023/04/03 02:26:37;;;;;;;2.50;1.58;;;11.00;99.90;;;;;;5050382;28;20036;-39
2023/04/03 02:29:03;;;;;;;2.42;1.42;;;11.00;99.90;;;;;;5050756;28;20021;-36
2023/04/03 02:31:28;;;;;;;3.33;1.83;;;11.00;99.90;;;;;;5051337;28;20032;-36
2023/04/03 02:33:54;;;;;;;2.60;1.73;;;11.00;99.90;;;;;;5051615;28;20096;-38
2023/04/03 02:36:20;;;;;;;3.08;1.80;;;11.00;99.90;;;;;;5051323;28;20051;-37
2023/04/03 02:38:45;;;;;;;2.55;1.65;;;11.00;99.90;;;;;;5050985;28;20033;-36
2023/04/03 02:41:12;;;;;;;3.45;1.90;;;10.90;99.90;;;;;;5050868;28;20103;-39
2023/04/03 02:43:38;;;;;;;2.63;1.42;;;10.90;99.90;;;;;;5051769;28;20047;-39
2023/04/03 02:46:05;;;;;;;3.35;1.77;;;10.90;99.90;;;;;;5051788;28;20029;-40
2023/04/03 02:48:31;;;;;;;3.08;1.85;;;10.90;99.90;;;;;;5051394;28;20558;-39
2023/04/03 02:50:57;;;;;;;2.80;2.05;;;10.90;99.90;;;;;;5052520;28;20025;-36
2023/04/03 02:53:23;;;;;;;4.35;2.00;;;10.90;99.90;;;;;;5052031;28;20032;-38
2023/04/03 02:55:49;;;;;;;3.10;1.77;;;10.90;99.90;;;;;;5051755;28;20025;-38
2023/04/03 02:58:15;;;;;;;2.50;1.50;;;10.90;99.90;;;;;;5051163;28;20047;-38
2023/04/03 03:00:40;;;;;;;3.58;2.08;;;10.90;99.90;;;;;;5050885;28;20128;-37
2023/04/03 03:03:07;;;;;;;3.30;1.95;;;10.90;99.90;;;;;;5051321;28;20025;-37
2023/04/03 03:05:33;;;;;;;3.20;1.55;;;11.00;99.90;;;;;;5051248;28;20555;-36
2023/04/03 03:07:58;;;;;;;2.13;1.88;;;11.30;99.90;;;;;;5050312;28;20096;-36
2023/04/03 03:10:24;;;;;;;2.92;1.80;;;11.30;99.90;;;;;;5051483;28;20394;-36
2023/04/03 03:12:50;;;;;;;4.18;1.58;;;11.30;99.90;;;;;;5051345;28;20075;-39
2023/04/03 03:15:17;;;;;;;1.95;1.45;;;11.20;99.90;;;;;;5052733;28;20021;-38
2023/04/03 03:17:43;;;;;;;1.65;1.40;;;11.20;99.90;;;;;;5056092;28;20025;-39
2023/04/03 03:20:09;;;;;;;2.90;2.10;;;11.10;99.90;;;;;;5055777;28;20083;-36
2023/04/03 03:22:35;;;;;;;1.83;1.67;;;11.10;99.90;;;;;;5054329;28;20159;-39
2023/04/03 03:25:02;;;;;;;3.20;1.83;;;11.00;99.90;;;;;;5056472;28;20025;-37
2023/04/03 03:27:28;;;;;;;3.17;2.05;;;11.00;99.90;;;;;;5053145;28;20530;-36
2023/04/03 03:29:53;;;;;;;2.38;1.88;;;11.00;99.90;;;;;;5054631;28;20151;-36
2023/04/03 03:32:19;;;;;;;2.75;2.05;;;10.90;99.90;;;;;;5055911;28;20040;-36
2023/04/03 03:34:45;;;;;;;3.17;1.88;;;10.90;99.90;;;;;;5055251;28;20021;-36
2023/04/03 03:37:10;;;;;;;2.97;1.83;;;10.90;99.90;;;;;;5055008;28;20495;-36
2023/04/03 03:39:36;;;;;;;2.50;1.70;;;10.90;99.90;;;;;;5054716;28;20021;-37
2023/04/03 03:42:01;;;;;;;3.60;1.75;;;10.90;99.90;;;;;;5054869;28;20044;-41
2023/04/03 03:44:28;;;;;;;2.53;1.75;;;10.80;99.90;;;;;;5054187;28;20116;-39
2023/04/03 03:46:55;;;;;;;2.28;1.90;;;10.80;99.90;;;;;;5053937;28;20047;-35
2023/04/03 03:49:20;;;;;;;2.30;1.63;;;10.80;99.90;;;;;;5054785;28;20017;-38
2023/04/03 03:51:46;;;;;;;3.08;2.00;;;10.80;99.90;;;;;;5054239;28;20027;-36
2023/04/03 03:54:12;;;;;;;2.28;1.50;;;10.80;99.90;;;;;;5055278;28;20036;-36
2023/04/03 03:56:38;;;;;;;3.17;1.88;;;10.80;99.90;;;;;;5054081;28;20100;-39
2023/04/03 03:59:03;;;;;;;1.98;1.70;;;10.80;99.90;;;;;;5054067;28;20487;-39
2023/04/03 04:01:29;;;;;;;3.90;1.80;;;10.80;99.90;;;;;;5054518;28;20051;-40
2023/04/03 04:03:55;;;;;;;2.97;1.63;;;10.90;99.90;;;;;;5054230;28;20024;-38
2023/04/03 04:06:21;;;;;;;2.55;1.90;;;11.10;99.90;;;;;;5053551;28;20021;-39
2023/04/03 04:08:47;;;;;;;3.55;1.85;;;11.20;99.90;;;;;;5055339;28;20032;-36
2023/04/03 04:11:13;;;;;;;2.58;1.70;;;11.30;99.90;;;;;;5054514;28;20132;-39
2023/04/03 04:13:38;;;;;;;3.03;1.77;;;11.20;99.90;;;;;;5053948;28;20025;-39
2023/04/03 04:16:05;;;;;;;2.55;1.63;;;11.10;99.90;;;;;;5054253;28;20025;-40
2023/04/03 04:18:31;;;;;;;2.08;1.60;;;11.10;99.90;;;;;;5054825;28;20033;-38
2023/04/03 04:20:56;;;;;;;2.65;1.50;;;11.10;99.90;;;;;;5053588;28;20167;-38
2023/04/03 04:23:22;;;;;;;2.08;1.75;;;11.00;99.90;;;;;;5053161;28;20112;-39
2023/04/03 04:25:49;;;;;;;2.65;1.63;;;10.90;99.90;;;;;;5053280;28;20021;-36
2023/04/03 04:28:15;;;;;;;3.13;1.98;;;10.90;99.90;;;;;;5053447;28;20059;-37
2023/04/03 04:30:41;;;;;;;2.42;1.60;;;10.90;99.90;;;;;;5053104;28;20071;-36
2023/04/03 04:33:07;;;;;;;3.15;1.70;;;10.80;99.90;;;;;;5053868;28;20048;-39
2023/04/03 04:35:34;;;;;;;3.85;1.83;;;10.80;99.90;;;;;;5053949;28;20037;-38
2023/04/03 04:38:00;;;;;;;4.68;1.90;;;10.80;99.90;;;;;;5053949;28;20025;-40
2023/04/03 04:40:26;;;;;;;2.80;1.73;;;10.80;99.90;;;;;;5053480;28;20024;-39
2023/04/03 04:42:53;;;;;;;3.67;1.83;;;10.80;99.90;;;;;;5054453;28;20097;-38
2023/04/03 04:45:19;;;;;;;2.58;1.80;;;10.80;99.90;;;;;;5053773;28;20037;-37
2023/04/03 04:47:45;;;;;;;2.97;1.80;;;10.70;99.90;;;;;;5054387;28;20376;-38
2023/04/03 04:50:11;;;;;;;3.90;1.88;;;10.80;99.90;;;;;;5053904;28;20036;-36
2023/04/03 04:52:37;;;;;;;2.45;1.83;;;10.70;99.90;;;;;;5053421;28;20025;-37
2023/04/03 04:55:03;;;;;;;2.88;1.77;;;10.80;99.90;;;;;;5053601;28;20032;-39
2023/04/03 04:57:29;;;;;;;2.72;1.83;;;10.80;99.90;;;;;;5053806;28;20044;-35
2023/04/03 04:59:55;;;;;;;2.90;1.70;;;10.70;99.90;;;;;;5053159;28;20060;-37
2023/04/03 05:02:20;;;;;;;2.92;1.83;;;10.80;99.90;;;;;;5052279;28;20041;-39
2023/04/03 05:04:46;;;;;;;4.03;1.95;;;10.90;99.90;;;;;;5052064;28;20111;-39
2023/04/03 05:07:11;;;;;;;2.03;1.60;;;11.10;99.90;;;;;;5053109;28;20021;-38
2023/04/03 05:09:37;;;;;;;2.88;1.85;;;11.20;99.90;;;;;;5053276;28;20437;-39
2023/04/03 05:12:03;;;;;;;3.65;1.73;;;11.20;99.90;;;;;;5053292;28;20044;-38
2023/04/03 05:14:28;;;;;;;2.28;1.48;;;11.10;99.90;;;;;;5052514;28;20021;-36
2023/04/03 05:16:54;;;;;;;2.50;1.80;;;11.00;99.90;;;;;;5052330;28;20483;-36
2023/04/03 05:19:21;;;;;;;3.38;1.70;;;11.00;99.90;;;;;;5052927;28;20052;-38
2023/04/03 05:21:47;;;;;;;1.92;1.55;;;10.90;99.90;;;;;;5052207;28;20024;-38
2023/04/03 05:24:13;;;;;;;2.55;1.48;;;10.90;99.90;;;;;;5053244;28;20017;-36
2023/04/03 05:26:40;;;;;;;1.60;1.50;;;10.90;99.90;;;;;;5051970;28;20482;-35
2023/04/03 05:29:06;;;;;;;3.58;1.80;;;10.80;99.90;;;;;;5052994;28;20553;-39
2023/04/03 05:31:32;;;;;;;2.03;1.65;;;10.80;99.90;;;;;;5052369;28;20029;-38
2023/04/03 05:33:58;;;;;;;2.50;1.45;;;10.80;99.90;;;;;;5053148;28;20024;-36
2023/04/03 05:36:25;;;;;;;2.58;1.77;;;10.80;99.90;;;;;;5052668;28;20028;-36
2023/04/03 05:38:51;;;;;;;2.97;1.70;;;10.70;99.90;;;;;;5052398;28;20029;-38
2023/04/03 05:41:16;;;;;;;3.35;1.60;;;10.70;99.90;;;;;;5053222;28;20044;-39
2023/04/03 05:43:42;;;;;;;2.05;1.67;;;10.70;99.90;;;;;;5053022;28;20032;-35
2023/04/03 05:46:13;;;;;;;2.92;1.80;;;10.70;99.90;;;;;;5051420;28;20522;-36
2023/04/03 05:48:39;;;;;;;2.38;1.58;;;10.70;99.90;;;;;;5052450;28;20487;-39
2023/04/03 05:51:06;;;;;;;3.15;1.60;;;10.70;99.90;;;;;;5052285;28;20029;-36
2023/04/03 05:53:34;;;;;;;2.17;1.60;;;10.70;99.90;;;;;;5051909;28;20032;-38
2023/04/03 05:56:00;;;;;;;3.05;1.77;;;10.70;99.90;;;;;;5052366;28;20036;-37
2023/04/03 05:58:26;;;;;;;2.60;1.80;;;10.70;99.90;;;;;;5052509;28;20028;-36
2023/04/03 06:00:51;;;;;;;2.17;1.60;;;10.70;99.90;;;;;;5051874;28;20029;-39
2023/04/03 06:03:17;;;;;;;2.03;1.50;;;10.70;99.90;;;;;;5052373;28;20416;-39
2023/04/03 06:05:43;;;;;;;3.10;1.80;;;10.90;99.90;;;;;;5052496;28;20025;-39
2023/04/03 06:08:08;;;;;;;3.22;1.60;;;11.00;99.90;;;;;;5052438;28;20017;-38
2023/04/03 06:10:35;;;;;;;1.83;1.63;;;11.00;99.90;;;;;;5051396;28;20360;-36
2023/04/03 06:13:01;;;;;;;2.63;1.75;;;10.90;99.90;;;;;;5052215;28;20025;-39
2023/04/03 06:15:28;;;;;;;3.25;1.75;;;10.90;99.90;;;;;;5052124;28;20025;-37
2023/04/03 06:17:53;;;;;;;2.72;1.70;;;10.80;99.90;;;;;;5051631;28;20078;-36
2023/04/03 06:20:19;;;;;;;3.35;1.80;;;10.80;99.90;;;;;;5050409;28;20029;-36
2023/04/03 06:22:45;;;;;;;2.58;1.65;;;10.80;99.90;;;;;;5052127;28;20033;-39
2023/04/03 06:25:12;;;;;;;2.03;1.70;;;10.80;99.90;;;;;;5051445;28;20048;-36
2023/04/03 06:27:37;;;;;;;1.52;1.42;;;10.70;99.90;;;;;;5050638;28;20024;-39
2023/04/03 06:30:04;;;;;;;2.58;2.03;;;10.70;99.90;;;;;;5051884;28;20021;-36
2023/04/03 06:32:30;;;;;;;2.95;1.60;;;10.70;99.90;;;;;;5050965;28;20017;-36
2023/04/03 06:34:56;;;;;;;4.05;1.80;;;10.70;99.90;;;;;;5050879;28;20134;-36
2023/04/03 06:37:25;;;;;;;3.03;1.80;;;10.70;99.90;;;;;;5050927;28;20091;-38
2023/04/03 06:39:51;;;;;;;3.78;1.80;;;10.60;99.90;;;;;;5051109;28;20083;-37
2023/04/03 06:42:17;;;;;;;5.03;2.20;;;10.30;99.90;;;;;;5052622;28;20021;-41
2023/04/03 06:44:43;;;;;;;4.20;1.73;;;10.20;99.90;;;;;;5051813;28;20513;-38
2023/04/03 06:47:13;;;;;;;6.60;2.28;;;10.10;99.90;;;;;;5051056;28;20505;-36
2023/04/03 06:49:39;;;;;;;6.03;1.80;;;10.10;99.90;;;;;;5052152;28;20021;-39
2023/04/03 06:52:05;;;;;;;2.65;1.90;;;10.10;99.90;;;;;;5054881;28;20368;-39
2023/04/03 06:54:31;;;;;;;5.07;2.13;;;10.10;99.90;;;;;;5054816;28;20029;-38
2023/04/03 06:56:57;;;;;;;4.70;1.95;;;10.10;99.90;;;;;;5055240;28;20036;-36
2023/04/03 06:59:23;;;;;;;5.25;2.33;;;10.10;99.90;;;;;;5054828;28;20025;-39
2023/04/03 07:01:49;;;;;;;2.78;1.90;;;10.10;99.90;;;;;;5054661;28;20037;-38
2023/04/03 07:04:15;;;;;;;3.42;1.98;;;10.00;99.90;;;;;;5055528;28;20108;-38
2023/04/03 07:06:42;;;;;;;3.80;1.90;;;10.10;99.90;;;;;;5054757;28;20394;-38
2023/04/03 07:09:10;;;;;;;3.17;2.28;;;10.10;99.90;;;;;;5055269;28;20027;-36
2023/04/03 07:11:36;;;;;;;4.70;1.80;;;10.10;99.90;;;;;;5055992;28;20460;-35
2023/04/03 07:14:02;;;;;;;3.70;1.85;;;10.10;99.90;;;;;;5054953;28;20052;-39
2023/04/03 07:16:30;;;;;;;4.03;2.15;;;10.10;99.90;;;;;;5054238;28;20027;-35
2023/04/03 07:18:57;;;;;;;3.15;1.98;;;10.20;99.90;;;;;;5054971;28;20521;-36
2023/04/03 07:21:22;;;;;;;3.75;2.10;;;10.20;99.90;;;;;;5054389;28;20438;-35
2023/04/03 07:23:48;;;;;;;5.82;1.80;;;10.20;99.90;;;;;;5054368;28;20592;-39
2023/04/03 07:26:14;;;;;;;2.78;1.80;;;10.20;99.90;;;;;;5054213;28;20055;-39
2023/04/03 07:28:41;;;;;;;2.97;1.90;;;10.30;99.90;;;;;;5054826;28;20037;-36
2023/04/03 07:31:13;;;;;;;2.53;1.70;;;10.30;99.90;;;;;;5054273;28;20487;-40
2023/04/03 07:33:39;;;;;;;3.42;1.95;;;10.30;99.90;;;;;;5054194;28;20025;-38
2023/04/03 07:36:06;;;;;;;2.50;1.63;;;10.30;99.90;;;;;;5053820;28;20484;-40
2023/04/03 07:38:32;;;;;;;6.13;1.80;;;10.40;99.90;;;;;;5055013;28;20029;-36
2023/04/03 07:40:58;;;;;;;2.92;1.92;;;10.40;99.90;;;;;;5054883;28;20032;-35
2023/04/03 07:43:24;;;;;;;4.80;1.80;;;10.40;99.90;;;;;;5053952;28;20391;-37
2023/04/03 07:45:50;;;;;;;2.67;1.58;;;10.30;99.90;;;;;;5053460;28;20025;-37
2023/04/03 07:48:21;;;;;;;3.45;1.88;;;10.40;99.90;;;;;;5054675;28;20613;-36
2023/04/03 07:50:47;;;;;;;3.25;1.77;;;10.40;99.90;;;;;;5054508;28;20025;-41
2023/04/03 07:53:13;;;;;;;3.05;1.80;;;10.40;99.90;;;;;;5055501;28;20029;-38
2023/04/03 07:55:42;;;;;;;1.88;1.40;;;10.40;99.90;;;;;;5054622;28;20443;-36
2023/04/03 07:58:15;;;;;;;3.80;1.77;;;10.40;99.90;;;;;;5055589;28;20552;-38
2023/04/03 08:00:41;;;;;;;4.03;1.45;;;10.40;99.90;;;;;;5054867;28;20037;-36
2023/04/03 08:03:09;;;;;;;3.95;1.63;;;10.50;99.90;;;;;;5054192;28;20029;-36
2023/04/03 08:05:42;;;;;;;2.97;1.50;;;10.50;99.90;;;;;;5054262;28;20075;-36
2023/04/03 08:08:10;;;;;;;3.30;1.80;;;10.50;99.90;;;;;;5054827;28;20142;-39
2023/04/03 08:10:35;;;;;;;5.47;1.55;;;10.50;99.90;;;;;;5055463;28;20434;-35
2023/04/03 08:13:01;;;;;;;4.28;1.90;;;10.50;99.90;;;;;;5054839;28;20025;-38
2023/04/03 08:15:27;;;;;;;1.73;1.30;;;10.50;99.90;;;;;;5054147;28;20044;-37
2023/04/03 08:17:54;;;;;;;2.40;1.55;;;10.50;99.90;;;;;;5053348;28;20036;-40
2023/04/03 08:20:20;;;;;;;2.78;1.60;;;10.60;99.90;;;;;;5053694;28;20031;-38
2023/04/03 08:22:45;;;;;;;2.78;1.60;;;10.60;99.90;;;;;;5054840;28;20116;-38
2023/04/03 08:25:11;;;;;;;4.30;1.90;;;10.50;99.90;;;;;;5054245;28;20029;-39
2023/04/03 08:27:37;;;;;;;2.25;1.73;;;10.60;99.90;;;;;;5052593;28;20021;-41
2023/04/03 08:30:04;;;;;;;2.92;1.50;;;10.60;99.90;;;;;;5054253;28;20020;-36
2023/04/03 08:32:30;;;;;;;4.63;1.50;;;10.60;99.90;;;;;;5054595;28;20044;-38
2023/04/03 08:34:55;;;;;;;2.45;1.50;;;10.60;99.90;;;;;;5054506;28;20051;-38
2023/04/03 08:37:23;;;;;;;2.08;1.63;;;10.60;99.90;;;;;;5052719;28;20029;-35
2023/04/03 08:39:49;;;;;;;3.35;1.70;;;10.60;99.90;;;;;;5053306;28;20057;-36
2023/04/03 08:42:24;;;;;;;3.17;1.42;;;10.60;99.90;;;;;;5053012;28;20032;-36
2023/04/03 08:44:56;;;;;;;;;;;10.60;99.90;;;;;;5053005;28;20052;-38
2023/04/03 08:47:46;;;;;;;2.17;1.45;;;10.60;99.90;;;;;;5054013;28;19956;-36
2023/04/03 08:50:18;;;;;;;2.63;1.38;;;10.70;99.90;;;;;;5054443;28;20017;-38
2023/04/03 08:52:52;;;;;;;2.88;1.63;;;10.70;99.90;;;;;;5053057;28;20540;-38
2023/04/03 08:55:28;;;;;;;2.17;1.33;;;10.70;99.90;;;;;;5052606;28;20029;-38
2023/04/03 08:58:01;;;;;;;2.28;1.52;;;10.70;99.90;;;;;;5053226;28;20028;-38
2023/04/03 09:00:32;;;;;;;2.40;1.40;;;10.70;99.90;;;;;;5053328;28;20078;-36
2023/04/03 09:02:57;;;;;;;1.88;1.35;;;10.70;99.90;;;;;;5053877;28;20104;-35
2023/04/03 09:05:39;;;;;;;1.95;1.17;;;10.70;99.90;;;;;;5053781;28;20104;-37
2023/04/03 09:08:30;;;;;;;2.63;1.35;;;10.80;99.90;;;;;;5052059;28;20036;-40
2023/04/03 09:11:23;;;;;;;5.57;1.45;;;10.70;99.90;;;;;;5042288;28;20052;-38
2023/04/03 09:14:34;;;;;;;6.45;2.00;;;10.80;99.90;;;;;;5047718;28;20036;-38
2023/04/03 09:17:09;;;;;;;4.55;1.75;;;10.50;99.90;;;;;;5051737;28;20032;-36
2023/04/03 09:19:52;;;;;;;5.82;1.77;;;10.30;99.90;;;;;;5053018;28;20021;-39
2023/04/03 09:22:24;;;;;;;4.80;1.60;;;10.20;99.90;;;;;;5053125;28;20056;-38
2023/04/03 09:25:01;;;;;;;3.70;1.85;;;10.20;99.90;;;;;;5052492;28;20099;-36
2023/04/03 09:27:27;;;;;;;3.72;1.67;;;10.20;99.90;;;;;;5051476;28;20598;-38
2023/04/03 09:29:57;;;;;;;3.10;1.52;;;10.20;99.90;;;;;;5052015;28;20128;-40
2023/04/03 09:32:28;;;;;;;3.47;1.63;;;10.20;99.90;;;;;;5052043;28;20063;-40
2023/04/03 09:34:57;;;;;;;4.95;1.55;;;10.20;99.90;;;;;;5052070;28;20028;-37
2023/04/03 09:37:43;;;;;;;3.30;1.50;;;10.20;99.90;;;;;;5053632;28;20107;-39
2023/04/03 09:40:27;;;;;;;4.07;1.77;;;10.20;99.90;;;;;;5052889;28;20025;-38
2023/04/03 09:43:18;;;;;;;3.03;1.52;;;10.30;99.90;;;;;;5052774;28;20488;-39
2023/04/03 09:45:45;;;;;;;5.35;1.70;;;10.30;99.90;;;;;;5050762;28;20043;-37
2023/04/03 09:48:13;;;;;;;3.50;1.65;;;10.40;99.90;;;;;;5051346;28;20483;-38
2023/04/03 09:50:55;;;;;;;3.85;1.60;;;10.40;99.90;;;;;;5052763;28;20024;-38
2023/04/03 09:53:31;;;;;;;3.35;1.55;;;10.40;99.90;;;;;;5053801;28;20100;-37
2023/04/03 09:55:57;;;;;;;3.20;1.60;;;10.40;99.90;;;;;;5052831;28;20029;-38
2023/04/03 09:58:28;;;;;;;3.28;1.50;;;10.50;99.90;;;;;;5051933;28;20108;-39
2023/04/03 10:00:59;;;;;;;4.78;1.60;;;10.50;99.90;;;;;;5051371;28;20570;-39
2023/04/03 10:03:31;;;;;;;4.65;1.60;;;10.50;99.90;;;;;;5051309;28;20395;-38
2023/04/03 10:05:58;;;;;;;2.80;1.60;;;10.50;99.90;;;;;;5051363;28;20025;-39
2023/04/03 10:08:31;;;;;;;2.83;1.48;;;10.50;99.90;;;;;;5051249;28;20032;-39
2023/04/03 10:11:12;;;;;;;4.80;1.80;;;10.50;99.90;;;;;;5051454;28;20390;-36
2023/04/03 10:13:54;;;;;;;5.32;1.80;;;10.50;99.90;;;;;;5051149;28;20391;-38
2023/04/03 10:16:27;;;;;;;2.90;1.30;;;10.60;99.90;;;;;;5051916;28;20450;-38
2023/04/03 10:19:33;;;;;;;2.63;1.60;;;10.60;99.90;;;;;;5052438;28;20024;-36
2023/04/03 10:22:36;;;;;;;4.35;1.60;;;10.50;99.90;;;;;;5051448;28;20017;-36
2023/04/03 10:25:14;;;;;;;5.05;1.60;;;10.60;99.90;;;;;;5050060;28;20043;-38
2023/04/03 10:28:00;;;;;;;4.15;1.48;;;10.60;99.90;;;;;;5050526;28;20390;-39
2023/04/03 10:30:37;;;;;;;5.68;1.65;;;10.50;99.90;;;;;;5051350;28;20111;-36
2023/04/03 10:33:26;;;;;;;1.98;1.20;;;10.60;99.90;;;;;;5053257;28;20025;-39
2023/04/03 10:36:11;;;;;;;2.17;1.25;;;10.60;99.90;;;;;;5051285;28;20103;-38
2023/04/03 10:38:37;;;;;;;3.20;1.50;;;10.60;99.90;;;;;;5052252;28;20032;-39
2023/04/03 10:41:15;;;;;;;3.45;1.83;;;10.60;99.90;;;;;;5052003;28;20024;-36
2023/04/03 10:43:59;;;;;;;2.75;1.55;;;10.60;99.90;;;;;;5051941;28;20039;-36
2023/04/03 10:46:34;;;;;;;2.28;1.30;;;10.60;99.90;;;;;;5050800;28;20056;-37
2023/04/03 10:49:30;;;;;;;3.55;1.42;;;10.70;99.90;;;;;;5051779;28;20048;-39
2023/04/03 10:52:24;;;;;;;1.85;1.20;;;10.70;99.90;;;;;;5051864;28;20475;-36
2023/04/03 10:54:59;;;;;;;2.20;1.48;;;10.70;99.90;;;;;;5051076;28;20470;-36
2023/04/03 10:57:26;;;;;;;2.75;1.23;;;10.70;99.90;;;;;;5050354;28;20013;-36
2023/04/03 11:00:04;;;;;;;3.50;1.52;;;10.70;99.90;;;;;;5050765;28;20035;-41
2023/04/03 11:02:57;;;;;;;4.47;1.58;;;10.70;99.90;;;;;;5050706;28;20036;-38
2023/04/03 11:05:32;;;;;;;4.80;1.40;;;10.70;99.90;;;;;;5048979;28;20037;-40
2023/04/03 11:08:02;;;;;;;3.65;1.40;;;10.70;99.90;;;;;;5051505;28;20491;-36
2023/04/03 11:10:49;;;;;;;3.08;1.30;;;10.70;99.90;;;;;;5051898;28;20043;-35
2023/04/03 11:13:26;;;;;;;3.22;1.40;;;10.70;99.90;;;;;;5051587;28;20066;-35
2023/04/03 11:15:55;;;;;;;3.70;1.50;;;10.70;99.90;;;;;;5051784;28;20028;-37
2023/04/03 11:18:35;;;;;;;2.05;1.08;;;10.70;99.90;;;;;;5052212;28;20478;-40
2023/04/03 11:21:26;;;;;;;3.67;1.38;;;10.70;99.90;;;;;;5051599;28;20175;-40
2023/04/03 11:23:56;;;;;;;1.90;1.23;;;10.70;99.90;;;;;;5049295;28;20398;-39
2023/04/03 11:26:25;;;;;;;1.73;1.23;;;10.70;99.90;;;;;;5050626;28;20116;-35
2023/04/03 11:28:58;;;;;;;3.75;1.02;;;10.70;99.90;;;;;;5051464;28;20021;-39
2023/04/03 11:31:45;;;;;;;2.97;1.27;;;10.70;99.90;;;;;;5052390;28;20024;-38
2023/04/03 11:34:17;;;;;;;2.55;1.70;;;10.70;99.90;;;;;;5050385;28;20040;-39
2023/04/03 11:36:54;;;;;;;2.20;1.25;;;10.70;99.90;;;;;;5053213;28;20433;-38
2023/04/03 11:39:28;;;;;;;2.45;1.40;;;10.70;99.90;;;;;;5056626;28;20025;-37
2023/04/03 11:41:54;;;;;;;2.83;1.40;;;10.70;99.90;;;;;;5054463;28;20388;-38
2023/04/03 11:44:37;;;;;;;5.63;1.40;;;10.70;99.90;;;;;;5054649;28;20741;-36
2023/04/03 11:47:05;;;;;;;3.13;1.20;;;10.70;99.90;;;;;;5054218;28;20475;-37
2023/04/03 11:50:06;;;;;;;1.83;1.20;;;10.70;99.90;;;;;;5054241;28;20040;-36
2023/04/03 11:52:42;;;;;;;2.95;1.10;;;10.70;99.90;;;;;;5053878;28;20501;-36
2023/04/03 11:55:23;;;;;;;2.33;1.30;;;10.70;99.90;;;;;;5053816;28;20036;-36
2023/04/03 11:57:54;;;;;;;2.53;1.30;;;10.70;99.90;;;;;;5053312;28;20471;-39
2023/04/03 12:00:51;;;;;;;3.25;1.23;;;10.70;99.90;;;;;;5054036;28;20041;-39
2023/04/03 12:03:26;;;;;;;2.83;1.50;;;10.70;99.90;;;;;;5053730;28;20057;-42
2023/04/03 12:06:10;;;;;;;3.08;1.40;;;10.70;99.90;;;;;;5053493;28;20441;-36
2023/04/03 12:08:41;;;;;;;2.00;0.93;;;10.70;99.90;;;;;;5053832;28;20017;-37
2023/04/03 12:11:10;;;;;;;2.47;1.15;;;10.80;99.90;;;;;;5053536;28;20093;-36
2023/04/03 12:13:53;;;;;;;3.33;1.30;;;10.80;99.90;;;;;;5054481;28;20025;-37
2023/04/03 12:16:25;;;;;;;2.10;1.27;;;10.80;99.90;;;;;;5053544;28;20025;-36
2023/04/03 12:19:00;;;;;;;2.17;1.27;;;10.70;99.90;;;;;;5054575;28;20372;-35
2023/04/03 12:21:43;;;;;;;2.28;1.10;;;10.80;99.90;;;;;;5053760;28;20031;-39
2023/04/03 12:24:09;;;;;;;2.30;1.20;;;10.80;99.90;;;;;;5053298;28;20029;-36
2023/04/03 12:27:03;;;;;;;2.42;1.15;;;10.80;99.90;;;;;;5053067;28;20438;-38
2023/04/03 12:29:32;;;;;;;4.37;1.37;;;10.80;99.90;;;;;;5054167;28;20025;-36
2023/04/03 12:32:22;;;;;;;1.88;1.10;;;10.80;99.90;;;;;;5053152;28;20256;-36
2023/04/03 12:35:12;;;;;;;2.80;1.20;;;10.80;99.90;;;;;;5054044;28;20047;-36
2023/04/03 12:38:16;;;;;;;2.20;1.15;;;10.80;99.90;;;;;;5052550;28;20017;-37
2023/04/03 12:40:42;;;;;;;1.98;1.10;;;10.80;99.90;;;;;;5055218;28;20021;-39
2023/04/03 12:43:36;;;;;;;3.00;1.30;;;10.80;99.90;;;;;;5053658;28;20078;-36
2023/04/03 12:46:07;;;;;;;2.92;1.20;;;10.80;99.90;;;;;;5054079;28;20433;-36
2023/04/03 12:48:45;;;;;;;2.70;1.15;;;10.80;99.90;;;;;;5053809;28;20017;-38
2023/04/03 12:51:29;;;;;;;2.83;1.17;;;10.70;99.90;;;;;;5054049;28;20029;-36
2023/04/03 12:54:03;;;;;;;1.85;1.10;;;10.80;99.90;;;;;;5054401;28;20052;-35
2023/04/03 12:56:30;;;;;;;1.92;1.20;;;10.80;99.90;;;;;;5052193;28;20040;-36
2023/04/03 12:59:12;;;;;;;1.42;0.95;;;10.70;99.90;;;;;;5053133;28;20037;-35
2023/04/03 13:01:38;;;;;;;1.65;0.90;;;10.70;99.90;;;;;;5053929;28;20537;-40
2023/04/03 13:04:04;;;;;;;2.58;1.17;;;10.80;99.90;;;;;;5052589;28;20037;-36